sensor_id;sensor_type;location;lat;lon;timestamp;temperature;humidity
7163;DHT22;3623;47.098;15.446;2023-06-26T00:02:17;16.80;99.90
7163;DHT22;3623;47.098;15.446;2023-06-26T00:04:44;16.70;99.90
7163;DHT22;3623;47.098;15.446;2023-06-26T00:07:11;16.50;99.90
7163;DHT22;3623;47.098;15.446;2023-06-26T00:09:38;16.70;99.90
7163;DHT22;3623;47.098;15.446;2023-06-26T00:12:07;16.90;99.90
7163;DHT22;3623;47.098;15.446;2023-06-26T00:14:34;16.70;99.90
7163;DHT22;3623;47.098;15.446;2023-06-26T00:17:01;16.70;99.90
7163;DHT22;3623;47.098;15.446;2023-06-26T00:19:28;16.60;99.90
7163;DHT22;3623;47.098;15.446;2023-06-26T00:21:55;16.50;99.90
7163;DHT22;3623;47.098;15.446;2023-06-26T00:24:22;16.50;99.90
7163;DHT22;3623;47.098;15.446;2023-06-26T00:26:49;16.40;99.90
7163;DHT22;3623;47.098;15.446;2023-06-26T00:29:17;16.50;99.90
7163;DHT22;3623;47.098;15.446;2023-06-26T00:31:44;16.40;99.90
7163;DHT22;3623;47.098;15.446;2023-06-26T00:34:11;16.40;99.90
7163;DHT22;3623;47.098;15.446;2023-06-26T00:36:38;16.30;99.90
7163;DHT22;3623;47.098;15.446;2023-06-26T00:39:09;16.30;99.90
7163;DHT22;3623;47.098;15.446;2023-06-26T00:41:36;16.30;99.90
7163;DHT22;3623;47.098;15.446;2023-06-26T00:44:04;16.30;99.90
7163;DHT22;3623;47.098;15.446;2023-06-26T00:46:32;16.20;99.90
7163;DHT22;3623;47.098;15.446;2023-06-26T00:49:00;16.30;99.90
7163;DHT22;3623;47.098;15.446;2023-06-26T00:51:29;16.20;99.90
7163;DHT22;3623;47.098;15.446;2023-06-26T00:53:57;16.20;99.90
7163;DHT22;3623;47.098;15.446;2023-06-26T00:56:24;16.10;99.90
7163;DHT22;3623;47.098;15.446;2023-06-26T00:58:51;16.20;99.90
7163;DHT22;3623;47.098;15.446;2023-06-26T01:01:18;16.10;99.90
7163;DHT22;3623;47.098;15.446;2023-06-26T01:03:50;16.20;99.90
7163;DHT22;3623;47.098;15.446;2023-06-26T01:06:20;16.10;99.90
7163;DHT22;3623;47.098;15.446;2023-06-26T01:08:49;16.10;99.90
7163;DHT22;3623;47.098;15.446;2023-06-26T01:11:16;15.90;99.90
7163;DHT22;3623;47.098;15.446;2023-06-26T01:13:44;16.10;99.90
7163;DHT22;3623;47.098;15.446;2023-06-26T01:16:12;16.00;99.90
7163;DHT22;3623;47.098;15.446;2023-06-26T01:18:41;15.90;99.90
7163;DHT22;3623;47.098;15.446;2023-06-26T01:21:11;15.80;99.90
7163;DHT22;3623;47.098;15.446;2023-06-26T01:23:48;15.90;99.90
7163;DHT22;3623;47.098;15.446;2023-06-26T01:26:19;16.00;99.90
7163;DHT22;3623;47.098;15.446;2023-06-26T01:28:49;16.00;99.90
7163;DHT22;3623;47.098;15.446;2023-06-26T01:31:17;16.00;99.90
7163;DHT22;3623;47.098;15.446;2023-06-26T01:33:45;15.80;99.90
7163;DHT22;3623;47.098;15.446;2023-06-26T01:36:12;15.80;99.90
7163;DHT22;3623;47.098;15.446;2023-06-26T01:38:40;15.80;99.90
7163;DHT22;3623;47.098;15.446;2023-06-26T01:41:07;15.80;99.90
7163;DHT22;3623;47.098;15.446;2023-06-26T01:43:57;15.70;99.90
7163;DHT22;3623;47.098;15.446;2023-06-26T01:46:36;15.80;99.90
7163;DHT22;3623;47.098;15.446;2023-06-26T01:49:09;15.70;99.90
7163;DHT22;3623;47.098;15.446;2023-06-26T01:51:42;15.90;99.90
7163;DHT22;3623;47.098;15.446;2023-06-26T01:54:14;15.60;99.90
7163;DHT22;3623;47.098;15.446;2023-06-26T01:56:45;15.60;99.90
7163;DHT22;3623;47.098;15.446;2023-06-26T01:59:17;15.60;99.90
7163;DHT22;3623;47.098;15.446;2023-06-26T02:01:44;15.50;99.90
7163;DHT22;3623;47.098;15.446;2023-06-26T02:04:11;15.50;99.90
7163;DHT22;3623;47.098;15.446;2023-06-26T02:06:38;15.30;99.90
7163;DHT22;3623;47.098;15.446;2023-06-26T02:09:05;15.40;99.90
7163;DHT22;3623;47.098;15.446;2023-06-26T02:11:33;15.50;99.90
7163;DHT22;3623;47.098;15.446;2023-06-26T02:14:00;15.50;99.90
7163;DHT22;3623;47.098;15.446;2023-06-26T02:16:29;15.50;99.90
7163;DHT22;3623;47.098;15.446;2023-06-26T02:18:56;15.40;99.90
7163;DHT22;3623;47.098;15.446;2023-06-26T02:21:24;15.40;99.90
7163;DHT22;3623;47.098;15.446;2023-06-26T02:23:51;15.30;99.90
7163;DHT22;3623;47.098;15.446;2023-06-26T02:26:18;15.40;99.90
7163;DHT22;3623;47.098;15.446;2023-06-26T02:28:46;15.30;99.90
7163;DHT22;3623;47.098;15.446;2023-06-26T02:31:13;15.40;99.90
7163;DHT22;3623;47.098;15.446;2023-06-26T02:33:42;15.30;99.90
7163;DHT22;3623;47.098;15.446;2023-06-26T02:36:11;15.30;99.90
7163;DHT22;3623;47.098;15.446;2023-06-26T02:38:38;15.20;99.90
7163;DHT22;3623;47.098;15.446;2023-06-26T02:41:05;15.30;99.90
7163;DHT22;3623;47.098;15.446;2023-06-26T02:43:31;15.20;99.90
7163;DHT22;3623;47.098;15.446;2023-06-26T02:45:58;15.30;99.90
7163;DHT22;3623;47.098;15.446;2023-06-26T02:48:25;15.10;99.90
7163;DHT22;3623;47.098;15.446;2023-06-26T02:50:54;15.10;99.90
7163;DHT22;3623;47.098;15.446;2023-06-26T02:53:21;15.10;99.90
7163;DHT22;3623;47.098;15.446;2023-06-26T02:55:48;15.10;99.90
7163;DHT22;3623;47.098;15.446;2023-06-26T02:58:15;15.20;99.90
7163;DHT22;3623;47.098;15.446;2023-06-26T03:00:42;14.80;99.90
7163;DHT22;3623;47.098;15.446;2023-06-26T03:03:09;15.00;99.90
7163;DHT22;3623;47.098;15.446;2023-06-26T03:05:36;15.10;99.90
7163;DHT22;3623;47.098;15.446;2023-06-26T03:08:04;15.00;99.90
7163;DHT22;3623;47.098;15.446;2023-06-26T03:10:31;15.10;99.90
7163;DHT22;3623;47.098;15.446;2023-06-26T03:12:58;15.00;99.90
7163;DHT22;3623;47.098;15.446;2023-06-26T03:15:26;15.00;99.90
7163;DHT22;3623;47.098;15.446;2023-06-26T03:17:53;15.00;99.90
7163;DHT22;3623;47.098;15.446;2023-06-26T03:20:20;14.90;99.90
7163;DHT22;3623;47.098;15.446;2023-06-26T03:22:47;14.70;99.90
7163;DHT22;3623;47.098;15.446;2023-06-26T03:25:15;14.90;99.90
7163;DHT22;3623;47.098;15.446;2023-06-26T03:27:42;14.90;99.90
7163;DHT22;3623;47.098;15.446;2023-06-26T03:30:10;14.90;99.90
7163;DHT22;3623;47.098;15.446;2023-06-26T03:32:37;15.20;99.90
7163;DHT22;3623;47.098;15.446;2023-06-26T03:35:05;15.00;99.90
7163;DHT22;3623;47.098;15.446;2023-06-26T03:37:32;15.00;99.90
7163;DHT22;3623;47.098;15.446;2023-06-26T03:39:59;15.00;99.90
7163;DHT22;3623;47.098;15.446;2023-06-26T03:42:27;15.00;99.90
7163;DHT22;3623;47.098;15.446;2023-06-26T03:44:54;15.20;99.90
7163;DHT22;3623;47.098;15.446;2023-06-26T03:47:21;15.10;99.90
7163;DHT22;3623;47.098;15.446;2023-06-26T03:49:48;15.10;99.90
7163;DHT22;3623;47.098;15.446;2023-06-26T03:52:15;15.10;99.90
7163;DHT22;3623;47.098;15.446;2023-06-26T03:54:42;15.20;99.90
7163;DHT22;3623;47.098;15.446;2023-06-26T03:57:09;15.20;99.90
7163;DHT22;3623;47.098;15.446;2023-06-26T03:59:38;15.20;99.90
7163;DHT22;3623;47.098;15.446;2023-06-26T04:02:05;15.20;99.90
7163;DHT22;3623;47.098;15.446;2023-06-26T04:04:32;15.20;99.90
7163;DHT22;3623;47.098;15.446;2023-06-26T04:06:59;15.70;99.90
7163;DHT22;3623;47.098;15.446;2023-06-26T04:09:26;15.30;99.90
7163;DHT22;3623;47.098;15.446;2023-06-26T04:11:53;15.30;99.90
7163;DHT22;3623;47.098;15.446;2023-06-26T04:14:20;15.30;99.90
7163;DHT22;3623;47.098;15.446;2023-06-26T04:16:49;15.40;99.90
7163;DHT22;3623;47.098;15.446;2023-06-26T04:19:16;15.30;99.90
7163;DHT22;3623;47.098;15.446;2023-06-26T04:21:43;15.50;99.90
7163;DHT22;3623;47.098;15.446;2023-06-26T04:24:10;15.40;99.90
7163;DHT22;3623;47.098;15.446;2023-06-26T04:26:37;15.80;99.90
7163;DHT22;3623;47.098;15.446;2023-06-26T04:29:06;15.70;99.90
7163;DHT22;3623;47.098;15.446;2023-06-26T04:31:34;15.60;99.90
7163;DHT22;3623;47.098;15.446;2023-06-26T04:34:02;15.90;99.90
7163;DHT22;3623;47.098;15.446;2023-06-26T04:36:29;15.70;99.90
7163;DHT22;3623;47.098;15.446;2023-06-26T04:38:59;15.80;99.90
7163;DHT22;3623;47.098;15.446;2023-06-26T04:41:26;15.80;99.90
7163;DHT22;3623;47.098;15.446;2023-06-26T04:43:53;15.90;99.90
7163;DHT22;3623;47.098;15.446;2023-06-26T04:46:20;15.90;99.90
7163;DHT22;3623;47.098;15.446;2023-06-26T04:48:47;16.00;99.90
7163;DHT22;3623;47.098;15.446;2023-06-26T04:51:15;16.00;99.90
7163;DHT22;3623;47.098;15.446;2023-06-26T04:53:46;16.10;99.90
7163;DHT22;3623;47.098;15.446;2023-06-26T04:56:13;16.10;99.90
7163;DHT22;3623;47.098;15.446;2023-06-26T04:58:40;16.10;99.90
7163;DHT22;3623;47.098;15.446;2023-06-26T05:01:07;16.30;99.90
7163;DHT22;3623;47.098;15.446;2023-06-26T05:03:34;16.30;99.90
7163;DHT22;3623;47.098;15.446;2023-06-26T05:06:02;16.30;99.90
7163;DHT22;3623;47.098;15.446;2023-06-26T05:08:31;16.40;99.90
7163;DHT22;3623;47.098;15.446;2023-06-26T05:10:58;16.40;99.90
7163;DHT22;3623;47.098;15.446;2023-06-26T05:13:25;16.50;99.90
7163;DHT22;3623;47.098;15.446;2023-06-26T05:15:53;16.50;99.90
7163;DHT22;3623;47.098;15.446;2023-06-26T05:18:20;16.60;99.90
7163;DHT22;3623;47.098;15.446;2023-06-26T05:20:48;16.70;99.90
7163;DHT22;3623;47.098;15.446;2023-06-26T05:23:16;16.80;99.90
7163;DHT22;3623;47.098;15.446;2023-06-26T05:25:45;16.80;99.90
7163;DHT22;3623;47.098;15.446;2023-06-26T05:28:13;16.70;99.90
7163;DHT22;3623;47.098;15.446;2023-06-26T05:30:41;16.70;99.90
7163;DHT22;3623;47.098;15.446;2023-06-26T05:33:11;17.30;99.90
7163;DHT22;3623;47.098;15.446;2023-06-26T05:35:39;16.90;99.90
7163;DHT22;3623;47.098;15.446;2023-06-26T05:38:06;17.00;99.90
7163;DHT22;3623;47.098;15.446;2023-06-26T05:40:34;17.10;99.90
7163;DHT22;3623;47.098;15.446;2023-06-26T05:43:03;17.10;99.90
7163;DHT22;3623;47.098;15.446;2023-06-26T05:45:31;17.30;99.90
7163;DHT22;3623;47.098;15.446;2023-06-26T05:47:58;17.40;99.90
7163;DHT22;3623;47.098;15.446;2023-06-26T05:50:26;17.40;99.90
7163;DHT22;3623;47.098;15.446;2023-06-26T05:52:54;17.60;99.90
7163;DHT22;3623;47.098;15.446;2023-06-26T05:55:22;17.60;99.90
7163;DHT22;3623;47.098;15.446;2023-06-26T05:57:50;17.70;99.90
7163;DHT22;3623;47.098;15.446;2023-06-26T06:00:20;17.70;99.90
7163;DHT22;3623;47.098;15.446;2023-06-26T06:02:47;17.80;99.90
7163;DHT22;3623;47.098;15.446;2023-06-26T06:05:14;17.90;99.90
7163;DHT22;3623;47.098;15.446;2023-06-26T06:07:41;18.00;99.90
7163;DHT22;3623;47.098;15.446;2023-06-26T06:10:09;18.20;99.90
7163;DHT22;3623;47.098;15.446;2023-06-26T06:12:37;18.40;99.90
7163;DHT22;3623;47.098;15.446;2023-06-26T06:15:04;18.40;99.90
7163;DHT22;3623;47.098;15.446;2023-06-26T06:17:33;18.50;99.90
7163;DHT22;3623;47.098;15.446;2023-06-26T06:20:00;18.60;99.90
7163;DHT22;3623;47.098;15.446;2023-06-26T06:22:27;18.60;99.90
7163;DHT22;3623;47.098;15.446;2023-06-26T06:24:54;18.70;99.90
7163;DHT22;3623;47.098;15.446;2023-06-26T06:27:21;18.80;99.90
7163;DHT22;3623;47.098;15.446;2023-06-26T06:29:48;18.90;99.90
7163;DHT22;3623;47.098;15.446;2023-06-26T06:32:15;18.90;99.90
7163;DHT22;3623;47.098;15.446;2023-06-26T06:34:44;18.90;99.90
7163;DHT22;3623;47.098;15.446;2023-06-26T06:37:11;19.00;99.90
7163;DHT22;3623;47.098;15.446;2023-06-26T06:39:38;19.10;99.90
7163;DHT22;3623;47.098;15.446;2023-06-26T06:42:05;19.20;99.90
7163;DHT22;3623;47.098;15.446;2023-06-26T06:44:32;19.30;99.90
7163;DHT22;3623;47.098;15.446;2023-06-26T06:46:59;19.40;99.90
7163;DHT22;3623;47.098;15.446;2023-06-26T06:49:26;19.50;99.90
7163;DHT22;3623;47.098;15.446;2023-06-26T06:51:55;19.70;99.90
7163;DHT22;3623;47.098;15.446;2023-06-26T06:54:25;19.90;99.90
7163;DHT22;3623;47.098;15.446;2023-06-26T06:56:52;20.10;99.90
7163;DHT22;3623;47.098;15.446;2023-06-26T06:59:19;20.20;99.90
7163;DHT22;3623;47.098;15.446;2023-06-26T07:01:46;20.30;99.90
7163;DHT22;3623;47.098;15.446;2023-06-26T07:04:13;20.50;99.90
7163;DHT22;3623;47.098;15.446;2023-06-26T07:06:40;20.70;99.90
7163;DHT22;3623;47.098;15.446;2023-06-26T07:09:09;20.80;99.90
7163;DHT22;3623;47.098;15.446;2023-06-26T07:11:36;20.90;99.90
7163;DHT22;3623;47.098;15.446;2023-06-26T07:14:03;21.10;99.90
7163;DHT22;3623;47.098;15.446;2023-06-26T07:16:30;21.40;99.90
7163;DHT22;3623;47.098;15.446;2023-06-26T07:18:57;21.50;99.90
7163;DHT22;3623;47.098;15.446;2023-06-26T07:21:24;21.70;99.90
7163;DHT22;3623;47.098;15.446;2023-06-26T07:23:51;21.90;99.90
7163;DHT22;3623;47.098;15.446;2023-06-26T07:26:20;22.10;99.90
7163;DHT22;3623;47.098;15.446;2023-06-26T07:28:47;22.10;99.90
7163;DHT22;3623;47.098;15.446;2023-06-26T07:31:15;22.30;99.90
7163;DHT22;3623;47.098;15.446;2023-06-26T07:33:43;22.80;99.90
7163;DHT22;3623;47.098;15.446;2023-06-26T07:36:10;22.70;99.90
7163;DHT22;3623;47.098;15.446;2023-06-26T07:38:37;22.80;99.90
7163;DHT22;3623;47.098;15.446;2023-06-26T07:41:04;22.90;99.90
7163;DHT22;3623;47.098;15.446;2023-06-26T07:43:33;23.00;99.90
7163;DHT22;3623;47.098;15.446;2023-06-26T07:46:00;23.10;99.90
7163;DHT22;3623;47.098;15.446;2023-06-26T07:48:27;23.20;99.90
7163;DHT22;3623;47.098;15.446;2023-06-26T07:50:54;23.40;99.90
7163;DHT22;3623;47.098;15.446;2023-06-26T07:53:21;23.70;99.90
7163;DHT22;3623;47.098;15.446;2023-06-26T07:55:48;24.00;99.90
7163;DHT22;3623;47.098;15.446;2023-06-26T07:58:16;24.40;99.90
7163;DHT22;3623;47.098;15.446;2023-06-26T08:00:45;24.80;99.90
7163;DHT22;3623;47.098;15.446;2023-06-26T08:03:12;25.00;99.90
7163;DHT22;3623;47.098;15.446;2023-06-26T08:05:39;24.90;99.90
7163;DHT22;3623;47.098;15.446;2023-06-26T08:08:06;25.20;99.90
7163;DHT22;3623;47.098;15.446;2023-06-26T08:10:33;24.50;99.90
7163;DHT22;3623;47.098;15.446;2023-06-26T08:13:00;24.40;99.90
7163;DHT22;3623;47.098;15.446;2023-06-26T08:15:27;24.20;99.90
7163;DHT22;3623;47.098;15.446;2023-06-26T08:17:56;24.10;99.90
7163;DHT22;3623;47.098;15.446;2023-06-26T08:20:23;24.00;99.90
7163;DHT22;3623;47.098;15.446;2023-06-26T08:22:51;24.10;99.90
7163;DHT22;3623;47.098;15.446;2023-06-26T08:25:20;24.00;99.90
7163;DHT22;3623;47.098;15.446;2023-06-26T08:27:47;23.90;99.90
7163;DHT22;3623;47.098;15.446;2023-06-26T08:30:14;23.90;99.90
7163;DHT22;3623;47.098;15.446;2023-06-26T08:32:41;23.90;99.90
7163;DHT22;3623;47.098;15.446;2023-06-26T08:35:10;23.90;99.90
7163;DHT22;3623;47.098;15.446;2023-06-26T08:37:38;24.00;99.90
7163;DHT22;3623;47.098;15.446;2023-06-26T08:40:08;24.10;99.90
7163;DHT22;3623;47.098;15.446;2023-06-26T08:42:36;24.30;99.90
7163;DHT22;3623;47.098;15.446;2023-06-26T08:45:03;24.30;99.90
7163;DHT22;3623;47.098;15.446;2023-06-26T08:47:33;24.40;99.90
7163;DHT22;3623;47.098;15.446;2023-06-26T08:50:07;24.40;99.90
7163;DHT22;3623;47.098;15.446;2023-06-26T08:52:37;24.40;99.90
7163;DHT22;3623;47.098;15.446;2023-06-26T08:55:09;24.40;99.90
7163;DHT22;3623;47.098;15.446;2023-06-26T08:57:37;24.50;99.90
7163;DHT22;3623;47.098;15.446;2023-06-26T09:00:05;24.50;99.90
7163;DHT22;3623;47.098;15.446;2023-06-26T09:02:35;24.60;99.90
7163;DHT22;3623;47.098;15.446;2023-06-26T09:05:03;24.70;99.90
7163;DHT22;3623;47.098;15.446;2023-06-26T09:07:30;24.90;99.90
7163;DHT22;3623;47.098;15.446;2023-06-26T09:09:59;24.80;99.90
7163;DHT22;3623;47.098;15.446;2023-06-26T09:12:27;24.90;99.90
7163;DHT22;3623;47.098;15.446;2023-06-26T09:14:55;25.00;99.90
7163;DHT22;3623;47.098;15.446;2023-06-26T09:17:25;25.20;99.90
7163;DHT22;3623;47.098;15.446;2023-06-26T09:19:53;25.40;99.90
7163;DHT22;3623;47.098;15.446;2023-06-26T09:22:20;25.60;99.90
7163;DHT22;3623;47.098;15.446;2023-06-26T09:24:48;25.50;99.90
7163;DHT22;3623;47.098;15.446;2023-06-26T09:27:17;25.70;99.90
7163;DHT22;3623;47.098;15.446;2023-06-26T09:29:45;25.80;99.90
7163;DHT22;3623;47.098;15.446;2023-06-26T09:32:13;26.00;99.90
7163;DHT22;3623;47.098;15.446;2023-06-26T09:34:42;25.80;99.90
7163;DHT22;3623;47.098;15.446;2023-06-26T09:37:12;25.80;99.90
7163;DHT22;3623;47.098;15.446;2023-06-26T09:39:39;25.90;99.90
7163;DHT22;3623;47.098;15.446;2023-06-26T09:42:07;26.10;99.90
7163;DHT22;3623;47.098;15.446;2023-06-26T09:44:36;26.10;99.90
7163;DHT22;3623;47.098;15.446;2023-06-26T09:47:10;26.10;99.90
7163;DHT22;3623;47.098;15.446;2023-06-26T09:49:41;26.20;99.90
7163;DHT22;3623;47.098;15.446;2023-06-26T09:52:08;26.10;99.90
7163;DHT22;3623;47.098;15.446;2023-06-26T09:54:35;26.40;99.90
7163;DHT22;3623;47.098;15.446;2023-06-26T09:57:08;26.50;99.90
7163;DHT22;3623;47.098;15.446;2023-06-26T09:59:37;26.70;99.90
7163;DHT22;3623;47.098;15.446;2023-06-26T10:02:05;26.80;99.90
7163;DHT22;3623;47.098;15.446;2023-06-26T10:04:32;27.00;99.90
7163;DHT22;3623;47.098;15.446;2023-06-26T10:07:02;27.10;99.90
7163;DHT22;3623;47.098;15.446;2023-06-26T10:09:31;27.10;99.90
7163;DHT22;3623;47.098;15.446;2023-06-26T10:12:02;27.00;99.90
7163;DHT22;3623;47.098;15.446;2023-06-26T10:14:34;27.10;99.90
7163;DHT22;3623;47.098;15.446;2023-06-26T10:17:04;27.00;99.90
7163;DHT22;3623;47.098;15.446;2023-06-26T10:19:35;27.30;99.90
7163;DHT22;3623;47.098;15.446;2023-06-26T10:22:05;27.60;99.90
7163;DHT22;3623;47.098;15.446;2023-06-26T10:24:35;27.90;99.90
7163;DHT22;3623;47.098;15.446;2023-06-26T10:27:04;28.60;99.90
7163;DHT22;3623;47.098;15.446;2023-06-26T10:29:35;29.00;99.90
7163;DHT22;3623;47.098;15.446;2023-06-26T10:32:06;29.80;99.90
7163;DHT22;3623;47.098;15.446;2023-06-26T10:34:34;30.00;99.90
7163;DHT22;3623;47.098;15.446;2023-06-26T10:37:02;30.60;99.90
7163;DHT22;3623;47.098;15.446;2023-06-26T10:39:46;31.40;99.90
7163;DHT22;3623;47.098;15.446;2023-06-26T10:59:39;33.90;99.90
7163;DHT22;3623;47.098;15.446;2023-06-26T11:04:39;33.20;99.90
7163;DHT22;3623;47.098;15.446;2023-06-26T11:07:20;32.90;99.90
7163;DHT22;3623;47.098;15.446;2023-06-26T11:12:36;31.50;99.80
7163;DHT22;3623;47.098;15.446;2023-06-26T11:15:05;30.90;99.90
7163;DHT22;3623;47.098;15.446;2023-06-26T11:17:35;30.50;99.90
7163;DHT22;3623;47.098;15.446;2023-06-26T11:20:05;30.00;99.90
7163;DHT22;3623;47.098;15.446;2023-06-26T11:22:35;29.80;99.90
7163;DHT22;3623;47.098;15.446;2023-06-26T11:25:03;29.50;99.90
7163;DHT22;3623;47.098;15.446;2023-06-26T11:27:32;30.30;99.90
7163;DHT22;3623;47.098;15.446;2023-06-26T11:30:00;30.80;99.90
7163;DHT22;3623;47.098;15.446;2023-06-26T11:32:27;31.00;99.90
7163;DHT22;3623;47.098;15.446;2023-06-26T11:34:54;31.00;99.90
7163;DHT22;3623;47.098;15.446;2023-06-26T11:37:23;30.90;99.90
7163;DHT22;3623;47.098;15.446;2023-06-26T11:39:51;30.70;99.90
7163;DHT22;3623;47.098;15.446;2023-06-26T11:42:19;29.40;99.90
7163;DHT22;3623;47.098;15.446;2023-06-26T11:44:46;28.90;99.90
7163;DHT22;3623;47.098;15.446;2023-06-26T11:47:15;28.40;99.90
7163;DHT22;3623;47.098;15.446;2023-06-26T11:49:42;28.80;99.90
7163;DHT22;3623;47.098;15.446;2023-06-26T11:52:10;29.30;99.90
7163;DHT22;3623;47.098;15.446;2023-06-26T11:54:38;29.30;99.90
7163;DHT22;3623;47.098;15.446;2023-06-26T11:57:06;28.40;99.90
7163;DHT22;3623;47.098;15.446;2023-06-26T11:59:34;28.90;99.90
7163;DHT22;3623;47.098;15.446;2023-06-26T12:02:05;29.00;99.90
7163;DHT22;3623;47.098;15.446;2023-06-26T12:04:34;29.00;99.90
7163;DHT22;3623;47.098;15.446;2023-06-26T12:07:03;29.60;99.90
7163;DHT22;3623;47.098;15.446;2023-06-26T12:09:33;29.10;99.90
7163;DHT22;3623;47.098;15.446;2023-06-26T12:12:02;29.20;99.90
7163;DHT22;3623;47.098;15.446;2023-06-26T12:14:31;29.50;99.90
7163;DHT22;3623;47.098;15.446;2023-06-26T12:17:05;29.60;99.90
7163;DHT22;3623;47.098;15.446;2023-06-26T12:19:36;29.10;99.90
7163;DHT22;3623;47.098;15.446;2023-06-26T12:22:06;30.40;99.90
7163;DHT22;3623;47.098;15.446;2023-06-26T12:24:35;31.10;99.90
7163;DHT22;3623;47.098;15.446;2023-06-26T12:27:08;30.80;99.90
7163;DHT22;3623;47.098;15.446;2023-06-26T12:29:35;32.10;99.90
7163;DHT22;3623;47.098;15.446;2023-06-26T12:32:03;33.60;99.90
7163;DHT22;3623;47.098;15.446;2023-06-26T12:34:32;33.90;99.90
7163;DHT22;3623;47.098;15.446;2023-06-26T12:37:01;34.30;99.90
7163;DHT22;3623;47.098;15.446;2023-06-26T12:39:29;33.70;99.90
7163;DHT22;3623;47.098;15.446;2023-06-26T12:41:59;34.00;99.90
7163;DHT22;3623;47.098;15.446;2023-06-26T12:51:59;35.10;99.90
7163;DHT22;3623;47.098;15.446;2023-06-26T12:56:54;35.10;99.90
7163;DHT22;3623;47.098;15.446;2023-06-26T12:59:21;35.10;99.90
7163;DHT22;3623;47.098;15.446;2023-06-26T13:01:50;34.30;99.90
7163;DHT22;3623;47.098;15.446;2023-06-26T13:04:17;33.70;99.90
7163;DHT22;3623;47.098;15.446;2023-06-26T13:09:12;34.90;99.90
7163;DHT22;3623;47.098;15.446;2023-06-26T13:14:06;34.30;99.90
7163;DHT22;3623;47.098;15.446;2023-06-26T13:23:57;36.10;99.90
7163;DHT22;3623;47.098;15.446;2023-06-26T13:26:25;35.10;99.90
7163;DHT22;3623;47.098;15.446;2023-06-26T13:28:54;35.00;99.90
7163;DHT22;3623;47.098;15.446;2023-06-26T13:31:21;34.70;99.90
7163;DHT22;3623;47.098;15.446;2023-06-26T13:43:48;36.70;99.90
7163;DHT22;3623;47.098;15.446;2023-06-26T14:28:11;35.10;99.90
7163;DHT22;3623;47.098;15.446;2023-06-26T14:38:01;33.90;99.90
7163;DHT22;3623;47.098;15.446;2023-06-26T14:40:28;33.40;99.90
7163;DHT22;3623;47.098;15.446;2023-06-26T14:45:24;33.20;99.90
7163;DHT22;3623;47.098;15.446;2023-06-26T14:52:46;32.00;99.90
7163;DHT22;3623;47.098;15.446;2023-06-26T14:55:13;31.70;99.90
7163;DHT22;3623;47.098;15.446;2023-06-26T14:57:40;31.50;99.90
7163;DHT22;3623;47.098;15.446;2023-06-26T15:00:08;31.60;99.90
7163;DHT22;3623;47.098;15.446;2023-06-26T15:02:37;31.70;99.90
7163;DHT22;3623;47.098;15.446;2023-06-26T15:05:04;31.50;99.90
7163;DHT22;3623;47.098;15.446;2023-06-26T15:07:31;31.60;99.90
7163;DHT22;3623;47.098;15.446;2023-06-26T15:09:59;30.90;99.90
7163;DHT22;3623;47.098;15.446;2023-06-26T15:12:26;30.60;99.90
7163;DHT22;3623;47.098;15.446;2023-06-26T15:14:53;30.90;99.90
7163;DHT22;3623;47.098;15.446;2023-06-26T15:17:21;31.10;99.90
7163;DHT22;3623;47.098;15.446;2023-06-26T15:19:49;31.00;99.90
7163;DHT22;3623;47.098;15.446;2023-06-26T15:22:18;30.90;99.90
7163;DHT22;3623;47.098;15.446;2023-06-26T15:24:45;30.80;99.90
7163;DHT22;3623;47.098;15.446;2023-06-26T15:27:12;30.60;99.90
7163;DHT22;3623;47.098;15.446;2023-06-26T15:29:40;30.60;99.90
7163;DHT22;3623;47.098;15.446;2023-06-26T15:32:07;30.60;99.90
7163;DHT22;3623;47.098;15.446;2023-06-26T15:34:34;30.30;99.90
7163;DHT22;3623;47.098;15.446;2023-06-26T15:37:03;30.30;99.90
7163;DHT22;3623;47.098;15.446;2023-06-26T15:39:31;30.60;99.90
7163;DHT22;3623;47.098;15.446;2023-06-26T15:41:58;30.40;99.90
7163;DHT22;3623;47.098;15.446;2023-06-26T15:44:25;30.30;99.90
7163;DHT22;3623;47.098;15.446;2023-06-26T15:46:52;29.90;99.90
7163;DHT22;3623;47.098;15.446;2023-06-26T15:49:19;29.40;99.90
7163;DHT22;3623;47.098;15.446;2023-06-26T15:51:46;29.20;99.90
7163;DHT22;3623;47.098;15.446;2023-06-26T15:54:15;28.90;99.90
7163;DHT22;3623;47.098;15.446;2023-06-26T15:56:42;28.80;99.90
7163;DHT22;3623;47.098;15.446;2023-06-26T15:59:10;28.50;99.90
7163;DHT22;3623;47.098;15.446;2023-06-26T16:01:37;28.50;99.90
7163;DHT22;3623;47.098;15.446;2023-06-26T16:04:04;28.50;99.90
7163;DHT22;3623;47.098;15.446;2023-06-26T16:06:32;28.70;99.90
7163;DHT22;3623;47.098;15.446;2023-06-26T16:08:59;28.50;99.90
7163;DHT22;3623;47.098;15.446;2023-06-26T16:11:28;28.30;99.90
7163;DHT22;3623;47.098;15.446;2023-06-26T16:13:55;28.30;99.90
7163;DHT22;3623;47.098;15.446;2023-06-26T16:16:23;28.00;99.90
7163;DHT22;3623;47.098;15.446;2023-06-26T16:18:51;27.70;99.90
7163;DHT22;3623;47.098;15.446;2023-06-26T16:21:18;27.60;99.90
7163;DHT22;3623;47.098;15.446;2023-06-26T16:23:45;27.50;99.90
7163;DHT22;3623;47.098;15.446;2023-06-26T16:26:13;27.50;99.90
7163;DHT22;3623;47.098;15.446;2023-06-26T16:28:42;27.20;99.90
7163;DHT22;3623;47.098;15.446;2023-06-26T16:31:09;27.40;99.90
7163;DHT22;3623;47.098;15.446;2023-06-26T16:33:37;27.20;99.90
7163;DHT22;3623;47.098;15.446;2023-06-26T16:36:04;27.20;99.90
7163;DHT22;3623;47.098;15.446;2023-06-26T16:38:31;27.00;99.90
7163;DHT22;3623;47.098;15.446;2023-06-26T16:40:58;26.90;99.90
7163;DHT22;3623;47.098;15.446;2023-06-26T16:43:25;27.20;99.90
7163;DHT22;3623;47.098;15.446;2023-06-26T16:45:54;26.90;99.90
7163;DHT22;3623;47.098;15.446;2023-06-26T16:48:21;26.80;99.90
7163;DHT22;3623;47.098;15.446;2023-06-26T16:50:48;26.80;99.90
7163;DHT22;3623;47.098;15.446;2023-06-26T16:53:16;26.70;99.90
7163;DHT22;3623;47.098;15.446;2023-06-26T16:55:43;26.80;99.90
7163;DHT22;3623;47.098;15.446;2023-06-26T16:58:11;26.60;99.90
7163;DHT22;3623;47.098;15.446;2023-06-26T17:00:38;26.60;99.90
7163;DHT22;3623;47.098;15.446;2023-06-26T17:03:06;26.60;99.90
7163;DHT22;3623;47.098;15.446;2023-06-26T17:05:33;26.70;99.90
7163;DHT22;3623;47.098;15.446;2023-06-26T17:08:00;26.50;99.90
7163;DHT22;3623;47.098;15.446;2023-06-26T17:10:29;26.30;99.90
7163;DHT22;3623;47.098;15.446;2023-06-26T17:12:56;26.60;99.90
7163;DHT22;3623;47.098;15.446;2023-06-26T17:15:23;26.10;99.90
7163;DHT22;3623;47.098;15.446;2023-06-26T17:17:50;26.10;99.90
7163;DHT22;3623;47.098;15.446;2023-06-26T17:20:19;26.20;99.90
7163;DHT22;3623;47.098;15.446;2023-06-26T17:22:46;26.10;99.90
7163;DHT22;3623;47.098;15.446;2023-06-26T17:25:13;26.00;99.90
7163;DHT22;3623;47.098;15.446;2023-06-26T17:27:40;26.00;99.90
7163;DHT22;3623;47.098;15.446;2023-06-26T17:30:08;25.90;99.90
7163;DHT22;3623;47.098;15.446;2023-06-26T17:32:35;25.80;99.90
7163;DHT22;3623;47.098;15.446;2023-06-26T17:35:03;25.60;99.90
7163;DHT22;3623;47.098;15.446;2023-06-26T17:37:34;25.50;99.90
7163;DHT22;3623;47.098;15.446;2023-06-26T17:40:02;25.50;99.90
7163;DHT22;3623;47.098;15.446;2023-06-26T17:42:34;25.60;99.90